Time;durP1;ratioP1;P1;durP2;ratioP2;P2;SDS_P1;SDS_P2;PMS_P1;PMS_P2;Temp;Humidity;BMP_temperature;BMP_pressure;BME280_temperature;BME280_humidity;BME280_pressure;Samples;Min_cycle;Max_cycle;Signal;HPM_P1;HPM_P2
2022/08/11 00:00:58;;;;;;;3.93;2.50;;;;;;;18.51;52.84;101639.97;5043094;28;20239;-84
2022/08/11 00:03:26;;;;;;;3.00;2.70;;;;;;;18.42;52.95;101638.91;5045692;28;20644;-84
2022/08/11 00:05:55;;;;;;;3.03;2.73;;;;;;;18.36;53.16;101624.06;5050354;28;20220;-83
2022/08/11 00:08:25;;;;;;;5.47;2.63;;;;;;;18.30;53.47;101632.63;5051139;28;20229;-84
2022/08/11 00:10:54;;;;;;;3.00;2.17;;;;;;;18.28;53.45;101636.44;5044473;28;20704;-84
2022/08/11 00:13:22;;;;;;;3.37;3.07;;;;;;;18.25;53.70;101631.31;5043167;28;20208;-84
2022/08/11 00:15:50;;;;;;;4.33;2.80;;;;;;;18.21;53.79;101627.13;5048518;28;20638;-84
2022/08/11 00:18:17;;;;;;;4.30;2.60;;;;;;;18.20;53.98;101636.19;5049799;28;20213;-84
2022/08/11 00:20:45;;;;;;;2.80;2.50;;;;;;;18.16;53.85;101623.94;5045959;28;20207;-85
2022/08/11 00:23:14;;;;;;;3.00;2.63;;;;;;;18.14;53.89;101634.84;5057106;28;20214;-85
2022/08/11 00:25:44;;;;;;;2.97;2.67;;;;;;;18.11;53.85;101626.13;5046574;28;20218;-83
2022/08/11 00:28:25;;;;;;;6.33;3.40;;;;;;;18.07;54.01;101630.06;5045515;28;20215;-84
2022/08/11 00:30:53;;;;;;;5.40;3.00;;;;;;;17.99;54.30;101622.59;5033669;28;20229;-84
2022/08/11 00:33:22;;;;;;;5.63;3.17;;;;;;;17.92;54.58;101627.59;5035886;28;20635;-84
2022/08/11 00:35:50;;;;;;;3.67;3.00;;;;;;;17.85;54.59;101626.38;5049282;28;20637;-84
2022/08/11 00:38:18;;;;;;;4.37;2.83;;;;;;;17.79;54.70;101637.63;5046305;28;20257;-84
2022/08/11 00:40:55;;;;;;;4.60;2.47;;;;;;;17.75;54.97;101624.50;5047040;28;20228;-84
2022/08/11 00:43:36;;;;;;;3.23;2.50;;;;;;;17.72;55.05;101631.00;5050433;28;20211;-84
2022/08/11 00:46:14;;;;;;;3.23;2.50;;;;;;;17.67;54.89;101625.13;5046903;28;20192;-84
2022/08/11 00:48:53;;;;;;;3.13;2.83;;;;;;;17.62;55.20;101625.44;5042366;28;20226;-85
2022/08/11 00:51:29;;;;;;;2.93;2.37;;;;;;;17.59;55.37;101620.28;5050203;28;20310;-84
2022/08/11 00:54:08;;;;;;;4.27;2.80;;;;;;;17.55;55.53;101618.81;5033951;28;20637;-84
2022/08/11 00:57:21;;;;;;;2.70;2.47;;;;;;;17.52;55.78;101629.81;5050410;28;20663;-84
2022/08/11 01:00:13;;;;;;;3.63;2.67;;;;;;;17.50;55.56;101628.22;5039489;28;20239;-84
2022/08/11 01:03:01;;;;;;;3.03;2.43;;;;;;;17.44;55.57;101626.84;5045396;28;20916;-84
2022/08/11 01:06:02;;;;;;;2.73;2.27;;;;;;;17.37;55.47;101622.94;5035581;28;20208;-85
2022/08/11 01:08:53;;;;;;;4.60;2.53;;;;;;;17.30;55.39;101629.75;5046608;28;20253;-84
2022/08/11 01:11:53;;;;;;;3.03;2.73;;;;;;;17.19;55.63;101625.19;5043361;28;20217;-84
2022/08/11 01:15:04;;;;;;;4.10;2.97;;;;;;;17.08;56.36;101630.50;5038309;28;20200;-84
2022/08/11 01:18:05;;;;;;;3.87;2.87;;;;;;;17.05;56.90;101635.25;5044233;28;20274;-86
2022/08/11 01:21:02;;;;;;;4.13;2.70;;;;;;;17.00;57.16;101630.22;5037196;28;20734;-84
2022/08/11 01:24:09;;;;;;;4.90;3.20;;;;;;;16.96;57.25;101631.44;5042190;28;20209;-84
2022/08/11 01:27:33;;;;;;;4.37;2.90;;;;;;;16.90;57.76;101634.56;5042910;28;20218;-84
2022/08/11 01:30:28;;;;;;;3.70;3.10;;;;;;;16.87;58.07;101630.25;4922242;29;20241;-84
2022/08/11 01:33:40;;;;;;;6.23;3.30;;;;;;;16.89;58.26;101632.84;5055321;28;20862;-85
2022/08/11 01:36:40;;;;;;;3.77;3.47;;;;;;;16.88;58.19;101626.59;5039770;28;20752;-84
2022/08/11 01:39:31;;;;;;;4.07;3.17;;;;;;;16.86;58.20;101633.06;5047586;28;20281;-84
2022/08/11 01:45:29;;;;;;;5.00;3.60;;;;;;;16.80;58.59;101638.91;5045649;28;20209;-84
2022/08/11 01:48:02;;;;;;;4.47;2.83;;;;;;;16.77;58.45;101639.13;5042784;28;20287;-84
2022/08/11 01:50:55;;;;;;;4.00;3.20;;;;;;;16.70;58.49;101640.53;5040969;28;20204;-84
2022/08/11 01:53:31;;;;;;;3.27;2.97;;;;;;;16.65;58.68;101646.28;5057166;28;20564;-84
2022/08/11 01:56:11;;;;;;;4.50;3.00;;;;;;;16.60;58.72;101645.72;5041449;28;20285;-84
2022/08/11 01:58:44;;;;;;;5.60;3.90;;;;;;;16.56;58.77;101650.47;5039074;28;20214;-83
2022/08/11 02:01:24;;;;;;;4.30;3.30;;;;;;;16.51;59.05;101649.06;5045912;28;20753;-84
2022/08/11 02:03:55;;;;;;;4.73;2.87;;;;;;;16.42;58.87;101641.66;5048550;28;20222;-84
2022/08/11 02:09:26;;;;;;;5.87;2.80;;;;;;;16.24;59.24;101638.47;5037144;28;20225;-84
2022/08/11 02:11:58;;;;;;;4.37;2.97;;;;;;;16.18;59.62;101644.28;5049526;28;20229;-84
2022/08/11 02:14:29;;;;;;;4.03;2.93;;;;;;;16.11;60.12;101643.00;5042396;28;20198;-84
2022/08/11 02:17:09;;;;;;;4.30;2.90;;;;;;;16.08;60.56;101632.47;5048934;28;20283;-84
2022/08/11 02:25:37;;;;;;;3.70;2.60;;;;;;;16.05;61.17;101638.06;5050626;28;20194;-84
2022/08/11 02:28:10;;;;;;;5.53;3.60;;;;;;;16.05;61.23;101636.22;5053043;28;20195;-85
2022/08/11 02:30:41;;;;;;;4.17;2.80;;;;;;;16.06;61.26;101645.16;5053544;28;20202;-85
2022/08/11 02:33:23;;;;;;;3.17;2.80;;;;;;;16.04;61.14;101639.88;5052123;28;20281;-85
2022/08/11 02:35:59;;;;;;;3.40;3.00;;;;;;;16.01;60.58;101641.91;5058630;28;20205;-85
2022/08/11 02:38:31;;;;;;;3.43;2.93;;;;;;;15.97;60.50;101647.50;5043568;28;20190;-84
2022/08/11 02:42:21;;;;;;;5.10;2.33;;;;;;;15.90;60.48;101637.31;5042937;28;20227;-85
2022/08/11 02:44:10;;;;;;;3.87;2.80;;;;;;;15.83;60.64;101638.69;5048396;28;20203;-85
2022/08/11 02:46:49;;;;;;;4.83;3.07;;;;;;;15.77;60.55;101633.75;5051161;28;20205;-85
2022/08/11 02:52:19;;;;;;;4.53;3.37;;;;;;;15.66;61.45;101641.69;5043012;28;20320;-84
2022/08/11 02:54:58;;;;;;;4.70;3.67;;;;;;;15.60;61.59;101641.13;5044408;28;20203;-84
2022/08/11 02:57:33;;;;;;;5.83;4.30;;;;;;;15.56;61.83;101639.66;5042634;28;20197;-85
2022/08/11 03:00:07;;;;;;;4.57;3.80;;;;;;;15.54;62.00;101643.38;5048710;28;20766;-84
2022/08/11 03:03:00;;;;;;;4.37;3.37;;;;;;;15.52;62.65;101642.63;5048924;28;20287;-84
2022/08/11 03:05:37;;;;;;;4.03;3.63;;;;;;;15.48;62.57;101639.28;5051769;28;20224;-85
2022/08/11 03:08:29;;;;;;;4.40;3.17;;;;;;;15.46;62.72;101634.97;5055170;28;20212;-84
2022/08/11 03:17:15;;;;;;;4.23;3.50;;;;;;;15.40;63.11;101632.72;4969072;28;20271;-85
2022/08/11 03:19:49;;;;;;;3.87;3.47;;;;;;;15.39;63.31;101641.75;5038952;28;20204;-84
2022/08/11 03:22:22;;;;;;;5.47;3.73;;;;;;;15.36;63.38;101636.56;5047995;28;20222;-84
2022/08/11 03:24:58;;;;;;;5.30;4.80;;;;;;;15.31;63.66;101642.25;5045091;28;20232;-84
2022/08/11 03:27:41;;;;;;;4.47;4.00;;;;;;;15.23;63.64;101633.81;5050363;28;20204;-84
2022/08/11 03:30:15;;;;;;;4.40;3.87;;;;;;;15.16;63.89;101641.44;5043106;28;20719;-84
2022/08/11 03:35:55;;;;;;;4.60;3.90;;;;;;;15.10;64.59;101646.34;5041157;28;20275;-84
2022/08/11 03:38:27;;;;;;;4.77;3.63;;;;;;;15.08;64.33;101646.44;5050268;28;20558;-85
2022/08/11 03:44:07;;;;;;;5.07;4.03;;;;;;;14.99;64.79;101643.53;5052720;28;20199;-84
2022/08/11 03:46:57;;;;;;;5.33;4.00;;;;;;;14.95;64.98;101640.19;5045854;28;20205;-84
2022/08/11 03:49:38;;;;;;;8.23;4.37;;;;;;;14.91;65.29;101644.88;5050765;28;20248;-84
2022/08/11 03:52:13;;;;;;;6.00;4.50;;;;;;;14.88;65.51;101652.25;5049374;28;20221;-84
2022/08/11 03:54:50;;;;;;;5.17;4.23;;;;;;;14.86;65.66;101648.84;5044086;28;20208;-84
2022/08/11 03:57:43;;;;;;;4.80;4.30;;;;;;;14.81;65.76;101649.16;5046764;28;20193;-84
2022/08/11 04:00:59;;;;;;;4.47;3.87;;;;;;;14.77;65.52;101644.06;5050039;28;20205;-84
2022/08/11 04:04:06;;;;;;;4.60;3.90;;;;;;;14.70;65.95;101648.97;4992031;28;20207;-85
2022/08/11 04:07:11;;;;;;;5.10;3.97;;;;;;;14.65;65.75;101660.97;5050024;28;20232;-84
2022/08/11 04:10:18;;;;;;;5.47;3.60;;;;;;;14.56;65.69;101657.03;5045736;28;20256;-84
2022/08/11 04:13:17;;;;;;;5.10;3.67;;;;;;;14.50;65.71;101652.09;5013007;28;20284;-83
2022/08/11 04:16:14;;;;;;;7.40;3.70;;;;;;;14.45;66.18;101655.06;5044785;28;20202;-84
2022/08/11 04:19:32;;;;;;;5.00;3.40;;;;;;;14.41;66.32;101653.53;5034894;28;20210;-84
2022/08/11 04:22:32;;;;;;;6.80;3.30;;;;;;;14.38;66.35;101656.34;5048143;28;20316;-84
2022/08/11 04:25:21;;;;;;;4.87;3.47;;;;;;;14.38;66.76;101655.50;5047000;28;20217;-84
2022/08/11 04:28:18;;;;;;;4.20;3.80;;;;;;;14.36;67.09;101652.91;5043449;28;20202;-84
2022/08/11 04:31:19;;;;;;;5.53;4.13;;;;;;;14.34;67.13;101652.13;5045346;28;20217;-84
2022/08/11 04:34:24;;;;;;;4.47;3.70;;;;;;;14.33;67.69;101647.75;5051931;28;20208;-85
2022/08/11 04:37:34;;;;;;;7.33;4.20;;;;;;;14.31;68.07;101651.50;5040674;28;20216;-85
2022/08/11 04:40:26;;;;;;;5.03;3.70;;;;;;;14.31;68.42;101648.81;5047832;28;20252;-85
2022/08/11 04:43:46;;;;;;;3.90;3.40;;;;;;;14.30;68.48;101656.00;5047505;28;20308;-84
2022/08/11 04:46:30;;;;;;;5.83;3.27;;;;;;;14.31;68.78;101648.81;4995730;28;20253;-84
2022/08/11 05:01:42;;;;;;;4.83;3.30;;;;;;;14.23;70.05;101646.59;5054928;28;20653;-83
2022/08/11 05:08:13;;;;;;;4.27;3.10;;;;;;;14.29;70.98;101650.72;5050948;28;20200;-85
2022/08/11 05:10:57;;;;;;;4.27;3.60;;;;;;;14.33;71.45;101653.09;5004334;28;20237;-85
2022/08/11 05:36:05;;;;;;;5.17;4.70;;;;;;;15.16;74.20;101652.19;5040809;28;20263;-85
2022/08/11 05:58:00;;;;;;;4.80;3.77;;;;;;;15.87;72.75;101651.81;5053554;28;20671;-86
2022/08/11 06:00:27;;;;;;;4.93;3.93;;;;;;;16.00;72.59;101650.94;5061386;28;20652;-85
2022/08/11 06:02:56;;;;;;;5.13;3.60;;;;;;;16.12;71.94;101650.94;5054475;28;20230;-85
2022/08/11 06:05:23;;;;;;;7.30;4.07;;;;;;;16.24;71.62;101652.78;5043955;28;20206;-85
2022/08/11 06:07:55;;;;;;;3.93;3.53;;;;;;;16.38;70.45;101646.41;5048093;28;20233;-85
2022/08/11 06:10:28;;;;;;;3.97;3.47;;;;;;;16.51;69.92;101652.59;5042490;28;20214;-85
2022/08/11 06:12:59;;;;;;;5.47;3.30;;;;;;;16.64;68.63;101650.81;5050228;28;20273;-84
2022/08/11 06:15:27;;;;;;;4.50;3.33;;;;;;;16.78;67.77;101654.31;5053013;28;20587;-85
2022/08/11 06:17:55;;;;;;;7.73;3.97;;;;;;;16.91;67.10;101652.44;5052776;28;20212;-85
2022/08/11 06:20:24;;;;;;;3.40;3.10;;;;;;;17.06;66.34;101648.59;5053018;28;20235;-85
2022/08/11 06:22:57;;;;;;;4.60;3.13;;;;;;;17.23;65.84;101650.00;5053276;28;20226;-84
2022/08/11 06:25:31;;;;;;;4.77;2.77;;;;;;;17.40;64.52;101648.72;5050200;28;20652;-84
2022/08/11 06:28:00;;;;;;;4.50;2.93;;;;;;;17.54;63.49;101648.56;5051729;28;20194;-85
2022/08/11 06:30:35;;;;;;;3.17;2.70;;;;;;;17.72;63.06;101657.94;5032873;28;20252;-85
2022/08/11 06:33:03;;;;;;;5.07;2.70;;;;;;;17.88;62.27;101650.41;5046216;28;20208;-86
2022/08/11 06:35:51;;;;;;;5.73;2.87;;;;;;;18.06;61.98;101652.63;5052992;28;20205;-85
2022/08/11 06:38:37;;;;;;;3.23;2.73;;;;;;;18.25;61.38;101652.88;5058061;28;20203;-85
2022/08/11 06:44:18;;;;;;;6.17;2.97;;;;;;;18.67;60.61;101656.66;5035158;28;20226;-85
2022/08/11 06:46:49;;;;;;;6.00;3.57;;;;;;;18.85;60.38;101654.31;5042586;28;20288;-86
2022/08/11 06:52:05;;;;;;;8.20;3.33;;;;;;;19.20;59.13;101649.53;5051278;28;20281;-85
2022/08/11 06:54:34;;;;;;;8.00;3.67;;;;;;;19.34;58.32;101649.25;5051513;28;20301;-84
2022/08/11 07:00:27;;;;;;;10.53;4.60;;;;;;;19.68;57.37;101644.56;5005026;28;20271;-85
2022/08/11 07:03:00;;;;;;;8.93;4.40;;;;;;;19.88;56.76;101647.41;5046480;28;20237;-86
2022/08/11 07:05:37;;;;;;;13.80;4.47;;;;;;;20.04;56.14;101647.78;5045053;28;20196;-85
2022/08/11 07:17:16;;;;;;;16.23;4.97;;;;;;;20.82;54.33;101644.38;5049751;28;20226;-85
2022/08/11 07:30:51;;;;;;;12.10;4.00;;;;;;;21.75;51.71;101641.16;5046165;28;20230;-85
2022/08/11 07:33:27;;;;;;;10.50;3.67;;;;;;;21.95;51.29;101640.13;5051355;28;20212;-85
2022/08/11 07:35:57;;;;;;;7.40;3.60;;;;;;;22.14;50.58;101645.53;5038256;28;20201;-86
2022/08/11 07:38:42;;;;;;;9.45;2.92;;;;;;;22.32;49.96;101644.75;5050859;28;20206;-86
2022/08/11 07:41:09;;;;;;;6.30;3.03;;;;;;;22.49;49.13;101639.38;5049869;28;20257;-86
2022/08/11 07:43:37;;;;;;;6.20;3.03;;;;;;;22.64;48.55;101641.59;5049925;28;20356;-84
2022/08/11 07:54:21;;;;;;;3.90;2.72;;;;;;;23.35;46.33;101639.81;5048419;28;20273;-85
2022/08/11 07:56:48;;;;;;;4.63;2.40;;;;;;;23.51;46.14;101644.53;5051526;28;20201;-85
2022/08/11 08:18:35;;;;;;;4.18;2.50;;;;;;;24.88;43.13;101635.53;5031193;28;20196;-85
2022/08/11 08:21:11;;;;;;;9.52;2.88;;;;;;;25.03;42.88;101633.03;5050567;28;20229;-85
2022/08/11 08:23:40;;;;;;;8.77;3.10;;;;;;;25.19;42.03;101633.91;5051798;28;20209;-85
2022/08/11 08:26:57;;;;;;;6.22;3.10;;;;;;;25.34;42.04;101630.50;5050480;28;20672;-84
2022/08/11 08:30:46;;;;;;;7.35;3.22;;;;;;;25.51;41.18;101638.50;5050883;28;20679;-85
2022/08/11 08:31:43;;;;;;;7.35;3.20;;;;;;;25.69;41.02;101634.78;5042795;28;20241;-85
2022/08/11 08:34:11;;;;;;;6.13;2.88;;;;;;;25.83;40.16;101636.81;5053375;28;20727;-85
2022/08/11 08:36:42;;;;;;;6.28;3.00;;;;;;;25.94;39.64;101629.13;5031032;28;20293;-84
2022/08/11 08:39:09;;;;;;;7.43;3.17;;;;;;;26.11;39.39;101638.16;5031223;28;20289;-84
2022/08/11 08:41:38;;;;;;;7.50;3.25;;;;;;;26.23;39.08;101627.69;5030773;28;20217;-86
2022/08/11 08:44:08;;;;;;;5.07;3.45;;;;;;;26.38;39.05;101628.69;5031246;28;20206;-85
2022/08/11 08:46:42;;;;;;;9.45;3.35;;;;;;;26.54;38.38;101625.03;5043524;28;20272;-84
2022/08/11 08:49:14;;;;;;;7.30;3.30;;;;;;;26.67;37.65;101633.53;5050242;28;20193;-85
2022/08/11 08:51:45;;;;;;;6.60;2.67;;;;;;;26.82;37.70;101622.69;5056033;28;20229;-84
2022/08/11 08:54:16;;;;;;;6.75;2.80;;;;;;;26.94;37.76;101619.38;5050172;28;20213;-85
2022/08/11 08:56:45;;;;;;;7.85;2.75;;;;;;;27.10;37.70;101612.09;5050928;28;20189;-87
2022/08/11 08:59:14;;;;;;;7.05;2.78;;;;;;;27.26;37.15;101615.56;5050610;28;20209;-86
2022/08/11 09:01:45;;;;;;;7.63;2.83;;;;;;;27.38;36.47;101606.94;5048496;28;20313;-85
2022/08/11 09:04:13;;;;;;;4.57;2.35;;;;;;;27.48;36.09;101611.13;5048733;28;20205;-86
2022/08/11 09:06:41;;;;;;;4.60;2.17;;;;;;;27.56;35.97;101611.06;5049901;28;20197;-87
2022/08/11 09:09:12;;;;;;;6.45;2.70;;;;;;;27.69;36.17;101604.13;5051520;28;20717;-85
2022/08/11 09:11:53;;;;;;;5.00;2.20;;;;;;;27.78;36.19;101605.72;5066729;28;20255;-86
2022/08/11 09:14:20;;;;;;;5.68;2.75;;;;;;;27.87;36.07;101601.88;5055702;28;20197;-85
2022/08/11 09:16:48;;;;;;;3.67;2.55;;;;;;;27.98;35.71;101604.16;5049713;28;20215;-86
2022/08/11 09:19:17;;;;;;;4.97;2.28;;;;;;;28.06;35.34;101601.34;5050176;28;20197;-86
2022/08/11 09:21:44;;;;;;;5.28;2.10;;;;;;;28.08;35.21;101591.03;5051995;28;20225;-85
2022/08/11 09:27:07;;;;;;;3.47;2.33;;;;;;;28.37;35.51;101592.94;5029530;28;20208;-85
2022/08/11 09:29:34;;;;;;;2.80;2.30;;;;;;;28.52;34.93;101588.28;5051527;28;20643;-85
2022/08/11 09:32:01;;;;;;;3.05;2.05;;;;;;;28.63;34.20;101586.94;5050046;28;20240;-86
2022/08/11 09:34:28;;;;;;;4.07;2.03;;;;;;;28.70;33.81;101582.38;5052831;28;20206;-86
2022/08/11 09:44:45;;;;;;;3.65;2.03;;;;;;;29.00;33.46;101580.44;5053710;28;20604;-87
2022/08/11 09:45:13;;;;;;;4.20;2.15;;;;;;;29.13;32.38;101576.97;5053334;28;20202;-86
2022/08/11 09:47:40;;;;;;;2.90;2.03;;;;;;;29.19;32.29;101570.72;5053337;28;20653;-85
2022/08/11 09:50:10;;;;;;;3.70;2.25;;;;;;;29.32;32.69;101568.06;5053591;28;20233;-86
2022/08/11 09:52:39;;;;;;;4.38;2.13;;;;;;;29.49;32.35;101571.41;5053278;28;20217;-86
2022/08/11 09:55:10;;;;;;;2.22;1.67;;;;;;;29.59;31.47;101567.25;5053190;28;20211;-85
2022/08/11 10:00:29;;;;;;;2.08;1.80;;;;;;;29.73;30.21;101564.63;5053204;28;20185;-85
2022/08/11 10:02:57;;;;;;;3.03;2.00;;;;;;;29.77;30.08;101574.13;5052845;28;20891;-85
2022/08/11 10:08:12;;;;;;;4.40;2.17;;;;;;;29.90;30.12;101544.88;5053206;28;20192;-85
2022/08/11 10:10:41;;;;;;;3.35;2.30;;;;;;;29.96;29.20;101552.31;5052992;28;20225;-85
2022/08/11 10:13:11;;;;;;;3.95;2.10;;;;;;;30.04;29.64;101548.59;5053050;28;20212;-85
2022/08/11 10:15:42;;;;;;;4.28;1.75;;;;;;;30.09;28.73;101546.09;5053291;28;20253;-86
2022/08/11 10:21:00;;;;;;;3.28;2.00;;;;;;;30.17;28.77;101529.41;5052831;28;20212;-85
2022/08/11 10:33:58;;;;;;;3.08;1.73;;;;;;;30.38;27.78;101517.44;5033274;28;20687;-85
2022/08/11 10:34:33;;;;;;;4.03;1.88;;;;;;;30.60;27.50;101518.19;5052599;28;20763;-85
2022/08/11 10:37:02;;;;;;;3.60;2.10;;;;;;;30.64;27.04;101506.53;5053398;28;20730;-85
2022/08/11 10:39:29;;;;;;;4.30;2.00;;;;;;;30.74;27.47;101506.16;5066792;28;20209;-85
2022/08/11 10:44:45;;;;;;;3.03;2.00;;;;;;;30.96;26.91;101496.66;5042669;28;20202;-85
2022/08/11 11:01:04;;;;;;;2.13;1.92;;;;;;;31.29;26.57;101491.19;5052114;28;20757;-85
2022/08/11 11:03:33;;;;;;;3.30;1.90;;;;;;;31.32;26.15;101492.69;5052135;28;20205;-84
2022/08/11 11:06:06;;;;;;;2.65;1.90;;;;;;;31.34;25.63;101493.31;5052309;28;20201;-85
2022/08/11 11:08:54;;;;;;;2.33;1.95;;;;;;;31.33;25.17;101488.88;5051935;28;20197;-85
2022/08/11 11:17:54;;;;;;;4.25;1.77;;;;;;;31.37;25.45;101492.84;5049992;28;20229;-85
2022/08/11 11:19:45;;;;;;;3.00;1.88;;;;;;;31.48;25.62;101483.13;5053009;28;20184;-85
2022/08/11 11:25:08;;;;;;;3.80;1.70;;;;;;;31.54;25.83;101480.34;5052490;28;20247;-84
2022/08/11 11:27:45;;;;;;;2.15;1.63;;;;;;;31.57;25.41;101474.41;5055525;28;20243;-84
2022/08/11 11:30:15;;;;;;;2.00;1.80;;;;;;;31.58;25.07;101476.09;5074038;28;20272;-85
2022/08/11 11:32:47;;;;;;;4.57;2.28;;;;;;;31.62;25.42;101471.84;5054747;28;20226;-85
2022/08/11 11:35:26;;;;;;;6.40;1.85;;;;;;;31.63;24.99;101480.97;5054129;28;20324;-85
2022/08/11 11:37:54;;;;;;;1.80;1.70;;;;;;;31.60;24.45;101471.22;5033541;28;20217;-85
2022/08/11 11:40:23;;;;;;;2.40;1.90;;;;;;;31.62;24.80;101477.38;5033315;28;20198;-84
2022/08/11 11:42:54;;;;;;;3.55;2.03;;;;;;;31.66;24.54;101464.06;5033483;28;20313;-85
2022/08/11 11:45:24;;;;;;;2.78;2.00;;;;;;;31.66;24.67;101469.56;5033503;28;20193;-84
2022/08/11 11:47:53;;;;;;;4.85;2.00;;;;;;;31.66;25.00;101467.66;5051434;28;20415;-84
2022/08/11 11:50:24;;;;;;;2.22;2.08;;;;;;;31.66;24.71;101464.91;5051139;28;20668;-84
2022/08/11 11:52:52;;;;;;;3.05;1.77;;;;;;;31.67;24.53;101468.50;5050734;28;20279;-84
2022/08/11 11:55:20;;;;;;;3.85;1.90;;;;;;;31.69;24.37;101469.97;5053107;28;20205;-85
2022/08/11 12:03:19;;;;;;;5.82;2.00;;;;;;;31.94;23.84;101459.06;5071210;28;20219;-84
2022/08/11 12:05:47;;;;;;;2.33;1.67;;;;;;;31.96;23.92;101456.09;5054637;28;20211;-83
2022/08/11 12:08:16;;;;;;;6.32;2.30;;;;;;;31.97;23.98;101450.38;5051069;28;20235;-85
2022/08/11 12:10:49;;;;;;;1.85;1.65;;;;;;;32.00;23.59;101446.34;5050414;28;20241;-83
2022/08/11 12:16:04;;;;;;;3.15;2.13;;;;;;;32.10;23.66;101452.22;5050584;28;20209;-84
2022/08/11 12:18:33;;;;;;;2.85;2.28;;;;;;;32.11;23.82;101448.38;5050584;28;20202;-85
2022/08/11 12:21:02;;;;;;;3.42;2.38;;;;;;;32.15;23.88;101443.28;5050452;28;20262;-84
2022/08/11 12:29:01;;;;;;;3.10;2.15;;;;;;;32.18;23.00;101426.31;5046327;28;20574;-84
2022/08/11 12:31:30;;;;;;;4.38;1.88;;;;;;;32.23;23.43;101419.13;5050207;28;20759;-86
2022/08/11 12:34:02;;;;;;;7.30;2.28;;;;;;;32.30;23.07;101424.56;5049957;28;20207;-84
2022/08/11 12:36:32;;;;;;;4.85;2.10;;;;;;;32.31;23.02;101416.09;5049801;28;20209;-84
2022/08/11 12:39:00;;;;;;;3.72;2.00;;;;;;;32.31;23.33;101413.31;5034138;28;20217;-84
2022/08/11 12:47:04;;;;;;;3.10;2.20;;;;;;;32.33;22.96;101400.16;5052097;28;20209;-85
2022/08/11 12:52:24;;;;;;;2.60;1.70;;;;;;;32.34;23.04;101390.00;5050170;28;20321;-84
2022/08/11 12:54:58;;;;;;;6.60;1.92;;;;;;;32.34;22.65;101393.59;5050576;28;20203;-83
2022/08/11 13:05:56;;;;;;;3.08;2.10;;;;;;;32.46;23.31;101379.09;5031584;28;20193;-85
2022/08/11 13:08:25;;;;;;;6.00;1.95;;;;;;;32.47;22.96;101386.28;5049658;28;20304;-84
2022/08/11 13:13:41;;;;;;;2.28;1.75;;;;;;;32.40;22.36;101373.41;5008546;28;20209;-85
2022/08/11 13:16:08;;;;;;;2.67;1.90;;;;;;;32.38;22.51;101367.28;5048399;28;20209;-84
2022/08/11 13:18:41;;;;;;;2.70;1.67;;;;;;;32.40;22.67;101367.91;5047763;28;20239;-84
2022/08/11 13:21:09;;;;;;;2.38;1.67;;;;;;;32.42;23.00;101371.28;5049162;28;20691;-84
2022/08/11 13:23:37;;;;;;;3.70;1.80;;;;;;;32.46;23.04;101368.91;5050100;28;20211;-85
2022/08/11 13:26:06;;;;;;;2.95;1.65;;;;;;;32.47;22.72;101356.81;5059202;28;20201;-84
2022/08/11 13:28:35;;;;;;;2.78;2.28;;;;;;;32.51;22.69;101360.81;5056163;28;20203;-85
2022/08/11 13:31:13;;;;;;;3.58;1.73;;;;;;;32.58;23.28;101352.50;5048714;28;20240;-83
2022/08/11 13:33:43;;;;;;;2.33;2.13;;;;;;;32.61;22.33;101352.00;5049578;28;20204;-85
2022/08/11 13:36:10;;;;;;;2.83;1.70;;;;;;;32.59;22.56;101351.41;5049033;28;20211;-84
2022/08/11 13:38:40;;;;;;;3.90;2.10;;;;;;;32.60;23.26;101347.59;5044760;28;20215;-84
2022/08/11 13:41:36;;;;;;;3.22;1.90;;;;;;;32.63;23.46;101352.63;5048017;28;20229;-85
2022/08/11 13:43:55;;;;;;;3.25;1.90;;;;;;;32.66;23.11;101349.44;5045758;28;20197;-84
2022/08/11 13:46:23;;;;;;;4.90;2.10;;;;;;;32.65;22.69;101344.97;5035278;28;20289;-85
2022/08/11 13:48:53;;;;;;;4.22;1.98;;;;;;;32.66;22.34;101346.66;5050719;28;20224;-84
2022/08/11 13:51:31;;;;;;;3.08;2.10;;;;;;;32.63;22.08;101347.97;5047952;28;20233;-85
2022/08/11 13:54:00;;;;;;;2.20;1.75;;;;;;;32.60;22.26;101339.31;5051573;28;20205;-84
2022/08/11 13:56:27;;;;;;;3.03;1.98;;;;;;;32.64;22.96;101343.28;5047516;28;20308;-84
2022/08/11 13:58:55;;;;;;;3.22;1.95;;;;;;;32.67;22.92;101340.09;5038471;28;20198;-84
2022/08/11 14:01:24;;;;;;;8.35;2.25;;;;;;;32.69;22.84;101343.47;5048256;28;20224;-84
2022/08/11 14:03:53;;;;;;;4.22;2.00;;;;;;;32.67;22.71;101345.59;5049642;28;20674;-83
2022/08/11 14:06:21;;;;;;;4.05;1.73;;;;;;;32.65;22.74;101337.56;5049140;28;20270;-83
2022/08/11 14:08:52;;;;;;;2.15;1.95;;;;;;;32.70;22.68;101339.63;5064609;28;20205;-83
2022/08/11 14:14:08;;;;;;;2.28;2.05;;;;;;;32.71;22.92;101330.31;5051177;28;20208;-84
2022/08/11 14:16:41;;;;;;;3.45;2.17;;;;;;;32.71;22.95;101322.03;5043605;28;20196;-84
2022/08/11 14:19:13;;;;;;;3.70;1.85;;;;;;;32.73;22.74;101322.69;5047233;28;20197;-85
2022/08/11 14:24:29;;;;;;;2.83;2.08;;;;;;;32.71;22.73;101333.91;5048544;28;20736;-84
2022/08/11 14:26:55;;;;;;;2.90;1.73;;;;;;;32.73;22.86;101323.53;5046372;28;20205;-83
2022/08/11 14:29:25;;;;;;;2.28;1.60;;;;;;;32.72;22.89;101323.72;5051340;28;20216;-84
2022/08/11 14:31:54;;;;;;;1.85;1.70;;;;;;;32.70;22.77;101317.56;5051188;28;20232;-83
2022/08/11 14:34:24;;;;;;;1.65;1.55;;;;;;;32.70;22.59;101314.81;5058446;28;20200;-84
2022/08/11 14:36:53;;;;;;;4.85;1.80;;;;;;;32.69;22.48;101313.13;5047646;28;20201;-84
2022/08/11 14:39:23;;;;;;;2.80;2.22;;;;;;;32.70;22.25;101310.16;5052455;28;20201;-83
2022/08/11 14:47:24;;;;;;;2.38;1.92;;;;;;;32.71;22.21;101311.84;5053374;28;20220;-83
2022/08/11 14:49:56;;;;;;;2.08;1.52;;;;;;;32.72;22.28;101309.91;5053402;28;20581;-83
2022/08/11 14:52:24;;;;;;;3.67;2.03;;;;;;;32.70;22.08;101307.38;5053252;28;20228;-83
2022/08/11 14:57:40;;;;;;;2.08;1.65;;;;;;;32.73;22.29;101303.38;5053153;28;20335;-83
2022/08/11 15:00:11;;;;;;;2.85;1.67;;;;;;;32.75;22.34;101301.22;5053376;28;20283;-84
2022/08/11 15:05:26;;;;;;;1.60;1.50;;;;;;;32.78;22.38;101301.59;5054005;28;20185;-83
2022/08/11 15:07:54;;;;;;;4.75;1.98;;;;;;;32.83;22.38;101300.91;5053422;28;20227;-82
2022/08/11 15:10:22;;;;;;;1.95;1.80;;;;;;;32.87;22.56;101293.03;5053864;28;20734;-82
2022/08/11 15:12:49;;;;;;;2.58;1.95;;;;;;;32.91;22.41;101289.59;5052668;28;20229;-83
2022/08/11 15:18:05;;;;;;;3.47;2.00;;;;;;;32.96;22.31;101286.16;5052598;28;20228;-82
2022/08/11 15:26:08;;;;;;;2.20;1.58;;;;;;;32.96;21.61;101270.44;5042074;28;20703;-84
2022/08/11 15:45:49;;;;;;;3.13;1.63;;;;;;;32.80;21.46;101262.75;5028031;28;20285;-82
2022/08/11 15:48:21;;;;;;;3.88;2.17;;;;;;;32.86;21.93;101267.34;5050227;28;20600;-82
2022/08/11 15:50:52;;;;;;;3.47;1.92;;;;;;;32.86;21.66;101248.03;5050852;28;20228;-82
2022/08/11 15:53:26;;;;;;;2.45;2.10;;;;;;;32.80;21.37;101254.47;5050504;28;20221;-83
2022/08/11 15:55:55;;;;;;;1.80;1.65;;;;;;;32.76;21.84;101253.25;5051874;28;20196;-83
2022/08/11 16:04:13;;;;;;;4.15;1.80;;;;;;;32.69;21.30;101246.94;5050261;28;20258;-82
2022/08/11 16:06:45;;;;;;;2.30;1.30;;;;;;;32.64;21.34;101255.88;5047929;28;20201;-82
2022/08/11 16:09:14;;;;;;;1.90;1.40;;;;;;;32.60;21.06;101245.56;5051831;28;20209;-83
2022/08/11 16:11:43;;;;;;;2.38;1.60;;;;;;;32.56;21.11;101247.91;5047033;28;20742;-83
2022/08/11 16:16:58;;;;;;;2.25;1.65;;;;;;;32.54;20.77;101240.94;5048794;28;20232;-83
2022/08/11 16:19:31;;;;;;;3.30;1.70;;;;;;;32.56;20.93;101242.41;5051504;28;20280;-83
2022/08/11 16:21:58;;;;;;;1.73;1.52;;;;;;;32.59;21.20;101236.44;5048939;28;20233;-85
2022/08/11 16:24:28;;;;;;;1.83;1.35;;;;;;;32.59;21.36;101236.44;5051441;28;20209;-83
2022/08/11 16:26:57;;;;;;;2.10;1.58;;;;;;;32.59;21.74;101230.06;5050756;28;20209;-83
2022/08/11 16:29:24;;;;;;;1.55;1.40;;;;;;;32.59;21.82;101238.34;5051943;28;20202;-84
2022/08/11 16:40:11;;;;;;;2.33;1.60;;;;;;;32.36;21.69;101234.31;5009152;28;20201;-84
2022/08/11 16:48:11;;;;;;;1.95;1.45;;;;;;;32.12;21.73;101229.63;5049935;28;20570;-85
2022/08/11 16:50:41;;;;;;;3.13;1.70;;;;;;;32.06;21.83;101227.78;5047287;28;20208;-84
2022/08/11 16:53:07;;;;;;;2.58;1.40;;;;;;;32.01;21.96;101225.69;5046788;28;20252;-83